Sagres, Portugal

2:44 PM WET on February 14, 2016 (GMT +0000)
Mexilhoeira Grande | | Change Station
CLOSE
Current Station
Personal Weather Station
Location: Faro, FARO
Elevation: 167 ft
Nearby Weather Stations

Elev 167 ft 37.18 °N, 8.64 °W | Updated 11 seconds ago

Scattered Clouds
Scattered Clouds
55.6 °F
Feels Like 55.6 °F
N
15.0
Wind Variable Wind from West
Gusts 24.8 mph

Today
High -- | Low -- °F
--% Chance of Precip.
Yesterday
High -- | Low -- °F
Precip. -- in
Pressure 30.01 in
Visibility 6.2 miles
Clouds Few 3500 ft
Scattered Clouds 4000 ft
Dew Point 37 °F
Humidity 50%
Rainfall 0.18 in
Snow Depth Not available.
7:26 AM 6:14 PM
Waxing Crescent, 42% visible
METAR LPFR 141430Z 31025G37KT 9999 FEW035 SCT040 15/07 Q1016
Pressure 30.01 in
Visibility 6.2 miles
Clouds Few 3500 ft
Scattered Clouds 4000 ft
Dew Point 37 °F
Humidity 50%
Rainfall 0.18 in
Snow Depth Not available.
7:26 AM 6:14 PM
Waxing Crescent, 42% visible
METAR LPFR 141430Z 31025G37KT 9999 FEW035 SCT040 15/07 Q1016

10-Day Weather Forecast

Almanac

Astronomy

Feb. 14, 2016 Rise Set
Actual Time
Civil Twilight
Nautical Twilight
Astronomical Twilight
Moon
Length of Visible Light
Length of Day
Tomorrow will be .
, % of the Moon is Illuminated

Today's Extremes

Country Highs Country Lows

Community

WunderPhotos

Upload Photos

1,892,781 photos uploaded!

WunderBlog® & News

Nearby

Air Quality

  Air Quality AQ Index Pollutant
Not available.

Snow Depth

Station Depth Elevation

Earthquake Activity

City Distance Mag. Time & Date
Minimum magnitude displayed is 2.5.

Coastal Water Temperatures

Place Temperature

Stations

Nearby Weather Stations

Station Location Temp. Windchill Dew Point Humidity Wind Precip. Elev Updated Type